Latest Weather Observations for Maningrida Airport

IDD60801

Issued at 4:31 pm CST Saturday 23 May 2015 (issued every 30 minutes, with the page automatically refreshed every 10 minutes)

About weather observations | Map of weather stations | Latest weather observations for NT | Other Formats
Station Details ID: 014405 Name: MANINGRIDA AIRPORT Lat: -12.06 Lon: 134.23 Height: 28.1 m
Data from the previous 72 hours. | See also: Recent months at Maningrida Airport
Date/Time
CST
Temp
°C
App
Temp
°C
Dew
Point
Rel
Hum
%
Delta-T
°C
Wind Press
QNH
hPa
Press
MSL
hPa
Rain
since 9 am
mm
Dir
 
Spd
km/h
Gust
km/h
Spd
kts
Gust
kts
23/04:30pm 31.1 30.1 15.5 39 9.7 ESE 15 22 8 12 1012.1 1011.9 0.0
23/04:00pm 31.4 29.9 15.4 38 9.9 SE 17 24 9 13 1011.9 1011.7 0.0
23/03:30pm 31.1 29.9 15.1 38 9.9 ESE 15 22 8 12 1012.1 1011.9 0.0
23/03:00pm 31.0 29.3 14.6 37 10.0 SE 17 26 9 14 1012.3 1012.1 0.0
23/02:30pm 31.4 29.9 15.4 38 9.9 SE 17 26 9 14 1012.6 1012.4 0.0
23/02:00pm 31.3 29.2 15.3 38 9.9 SE 20 30 11 16 1013.1 1012.9 0.0
23/01:30pm 31.0 29.2 15.4 38 9.6 ESE 19 28 10 15 1013.7 1013.5 0.0
23/01:00pm 30.9 28.8 15.3 38 9.6 SSE 20 32 11 17 1014.1 1013.9 0.0
23/12:30pm 29.3 27.2 15.1 42 8.7 SSE 20 28 11 15 1014.4 1014.2 0.0
23/12:00pm 28.9 26.8 15.1 43 8.4 SSE 20 32 11 17 1014.9 1014.7 0.0
23/11:30am 28.3 25.6 15.6 46 7.8 SSE 24 32 13 17 1015.3 1015.1 0.0
23/11:00am 28.3 25.7 15.9 47 7.6 SE 24 33 13 18 1015.8 1015.6 0.0
23/10:30am 27.2 25.5 16.2 51 6.8 SSE 20 35 11 19 1016.2 1016.0 0.0
23/10:00am 26.7 23.6 15.7 51 6.7 SE 26 37 14 20 1016.4 1016.2 0.0
23/09:37am 26.0 22.8 16.3 55 6.0 SSE 28 46 15 25 1016.4 1016.2 0.0
23/09:30am 26.2 23.4 16.4 54 6.0 SSE 26 43 14 23 1016.4 1016.2 0.0
23/09:00am 25.1 22.3 16.3 58 5.4 SE 26 35 14 19 1016.2 1016.0 0.0
23/08:30am 24.0 22.3 17.3 66 4.2 SSE 22 35 12 19 1016.0 1015.8 0.0
23/08:00am 22.9 21.7 17.4 71 3.4 SSE 20 30 11 16 1015.8 1015.6 0.0
23/07:30am 22.2 21.7 17.8 76 2.7 SSE 17 26 9 14 1015.6 1015.4 0.0
23/07:00am 21.3 20.7 17.5 79 2.3 SSE 17 24 9 13 1015.4 1015.2 0.0
23/06:30am 21.2 20.1 17.2 78 2.4 SSE 19 24 10 13 1015.2 1015.0 0.0
23/06:00am 21.0 20.3 17.4 80 2.2 SSE 17 24 9 13 1015.1 1014.9 0.0
23/05:30am 20.6 20.3 17.4 82 2.0 SSE 15 22 8 12 1015.0 1014.8 0.0
23/05:00am 20.7 20.0 17.3 81 2.1 SSE 17 24 9 13 1014.6 1014.4 0.0
23/04:30am 20.6 20.8 17.6 83 1.8 SSE 13 19 7 10 1014.6 1014.4 0.0
23/04:00am 20.3 21.3 17.7 85 1.6 S 9 13 5 7 1014.6 1014.4 0.0
23/03:30am 20.0 21.5 18.0 88 1.2 SSE 7 11 4 6 1014.6 1014.4 0.0
23/03:00am 20.2 21.8 17.8 86 1.5 S 6 7 3 4 1014.7 1014.5 0.0
23/02:30am 21.1 22.6 18.1 83 1.9 S 7 11 4 6 1014.8 1014.6 0.0
23/02:00am 21.5 22.9 17.9 80 2.2 S 7 11 4 6 1015.0 1014.8 0.0
23/01:30am 22.5 23.6 18.1 76 2.7 SE 9 13 5 7 1015.1 1014.9 0.0
23/01:00am 22.8 23.2 18.1 75 2.9 SE 13 17 7 9 1015.2 1015.0 0.0
23/12:30am 23.1 23.5 18.2 74 3.1 SE 13 15 7 8 1015.7 1015.5 0.0
23/12:00am 23.8 24.3 18.4 72 3.4 ESE 13 17 7 9 1016.0 1015.8 0.0
 
Date/Time
CST
Temp
°C
App
Temp
°C
Dew
Point
Rel
Hum
%
Delta-T
°C
Wind Press
QNH
hPa
Press
MSL
hPa
Rain
since 9 am
mm
Dir
 
Spd
km/h
Gust
km/h
Spd
kts
Gust
kts
22/11:30pm 23.8 24.2 18.2 71 3.5 SE 13 17 7 9 1016.4 1016.2 0.0
22/11:00pm 24.7 24.7 18.2 67 4.1 SE 15 19 8 10 1016.6 1016.4 0.0
22/10:30pm 25.2 24.9 18.2 65 4.4 ESE 17 22 9 12 1016.6 1016.4 0.0
22/10:00pm 25.7 25.6 17.9 62 4.9 ESE 15 24 8 13 1016.5 1016.3 0.0
22/09:30pm 26.2 25.7 17.8 60 5.3 ESE 17 24 9 13 1016.3 1016.1 0.0
22/09:00pm 26.8 25.7 17.8 57 5.7 SE 20 30 11 16 1015.7 1015.5 0.0
22/08:30pm 27.0 25.9 17.8 57 5.8 SE 20 32 11 17 1015.6 1015.4 0.0
22/08:00pm 27.2 26.9 18.2 58 5.7 ESE 17 22 9 12 1015.1 1014.9 0.0
22/07:30pm 27.5 27.9 18.2 57 5.9 ESE 13 17 7 9 1014.4 1014.2 0.0
22/07:00pm 28.2 28.4 17.7 53 6.7 ESE 13 15 7 8 1014.2 1014.0 0.0
22/06:30pm 28.8 29.4 17.7 51 7.0 ESE 11 15 6 8 1013.8 1013.6 0.0
22/06:00pm 29.5 29.8 18.0 50 7.3 ESE 13 17 7 9 1013.5 1013.3 0.0
22/05:30pm 30.8 31.2 18.2 47 8.1 ESE 13 19 7 10 1013.0 1012.8 0.0
22/05:00pm 30.5 29.7 17.9 47 8.1 SE 19 26 10 14 1012.8 1012.6 0.0
22/04:30pm 32.1 33.3 19.0 45 8.6 ESE 11 20 6 11 1012.3 1012.1 0.0
22/04:00pm 31.5 30.9 18.5 46 8.4 ESE 19 28 10 15 1012.1 1011.9 0.0
22/03:30pm 31.8 30.4 18.0 43 8.9 SSE 22 30 12 16 1012.2 1012.0 0.0
22/03:00pm 32.0 31.1 18.2 43 8.9 ESE 20 30 11 16 1012.4 1012.2 0.0
22/02:30pm 31.7 30.7 17.6 43 9.0 ESE 19 30 10 16 1012.6 1012.4 0.0
22/02:00pm 31.9 31.0 17.8 43 9.1 E 19 30 10 16 1013.0 1012.8 0.0
22/01:30pm 31.7 30.5 18.3 45 8.7 SE 22 30 12 16 1013.3 1013.1 0.0
22/01:00pm 31.1 29.4 18.1 46 8.4 ESE 24 35 13 19 1013.9 1013.7 0.0
22/12:30pm 30.5 29.5 17.9 47 8.1 ESE 20 28 11 15 1014.5 1014.3 0.0
22/12:00pm 31.0 30.3 18.7 48 8.0 ESE 20 35 11 19 1015.1 1014.9 0.0
22/11:30am 30.4 29.2 18.5 49 7.7 SE 22 35 12 19 1015.5 1015.3 0.0
22/11:00am 29.6 28.8 19.3 54 6.7 SE 22 33 12 18 1015.9 1015.7 0.0
22/10:30am 29.1 28.9 20.5 59 5.7 SSE 22 32 12 17 1016.1 1015.9 0.0
22/10:00am 28.0 28.7 22.2 70 3.9 SE 22 30 12 16 1016.3 1016.1 0.0
22/09:30am 26.6 27.5 22.0 76 3.1 SE 20 26 11 14 1016.5 1016.3 0.0
22/09:29am 26.6 27.6 22.2 77 3.0 SE 20 26 11 14 1016.6 1016.4 0.0
22/09:00am 25.4 26.8 22.5 84 1.9 SE 19 22 10 12 1016.6 1016.4 0.0
22/08:30am 24.5 26.0 22.7 90 1.2 SE 19 24 10 13 1016.5 1016.3 0.0
22/08:14am 24.4 26.2 22.5 89 1.3 SE 17 24 9 13 1016.3 1016.1 0.0
22/08:00am 24.2 26.5 22.1 88 1.4 SSE 13 20 7 11 1016.1 1015.9 0.0
22/07:30am 23.1 26.3 22.3 95 0.5 SSE 9 15 5 8 1016.0 1015.8 0.0
22/07:00am 22.2 25.1 21.7 97 0.3 SSE 9 11 5 6 1015.5 1015.3 0.0
22/06:30am 22.2 25.1 21.7 97 0.3 SSE 9 13 5 7 1015.3 1015.1 0.0
22/06:00am 22.1 24.9 21.6 97 0.3 SSE 9 11 5 6 1015.0 1014.8 0.0
22/05:30am 22.0 25.1 21.5 97 0.3 SSE 7 9 4 5 1015.0 1014.8 0.0
22/05:00am 21.8 24.9 21.1 96 0.5 SSE 6 7 3 4 1014.9 1014.7 0.0
22/04:30am 22.4 25.7 21.9 97 0.3 S 7 9 4 5 1014.8 1014.6 0.0
22/04:00am 22.2 25.5 21.5 96 0.5 S 6 7 3 4 1014.8 1014.6 0.0
22/03:30am 22.6 25.9 21.9 96 0.5 S 7 11 4 6 1014.7 1014.5 0.0
22/03:00am 22.8 26.3 22.1 96 0.5 S 7 9 4 5 1014.8 1014.6 0.0
22/02:30am 22.6 26.0 21.6 94 0.7 SE 6 7 3 4 1014.9 1014.7 0.0
22/02:00am 23.4 27.0 22.4 94 0.7 SSE 7 9 4 5 1015.1 1014.9 0.0
22/01:30am 23.9 27.7 22.7 93 0.8 SE 7 9 4 5 1015.4 1015.2 0.0
22/01:00am 24.0 27.6 23.0 94 0.7 SE 9 9 5 5 1015.5 1015.3 0.0
22/12:30am 23.8 27.5 22.6 93 0.8 ESE 7 9 4 5 1015.5 1015.3 0.0
22/12:00am 24.1 27.9 22.7 92 0.9 ESE 7 7 4 4 1015.5 1015.3 0.0
 
Date/Time
CST
Temp
°C
App
Temp
°C
Dew
Point
Rel
Hum
%
Delta-T
°C
Wind Press
QNH
hPa
Press
MSL
hPa
Rain
since 9 am
mm
Dir
 
Spd
km/h
Gust
km/h
Spd
kts
Gust
kts
21/11:30pm 24.1 28.0 22.5 91 1.1 SE 6 7 3 4 1015.6 1015.4 0.0
21/11:00pm 24.6 28.7 23.0 91 1.1 ESE 6 9 3 5 1015.6 1015.4 0.0
21/10:30pm 24.7 28.4 22.6 88 1.4 ESE 7 9 4 5 1015.8 1015.6 0.0
21/10:00pm 25.1 28.9 22.8 87 1.6 ESE 7 9 4 5 1015.7 1015.5 0.0
21/09:30pm 25.3 29.2 23.0 87 1.6 ESE 7 9 4 5 1015.4 1015.2 0.0
21/09:00pm 25.4 29.5 22.9 86 1.7 E 6 7 3 4 1015.2 1015.0 0.0
21/08:30pm 25.7 29.8 23.0 85 1.8 E 6 9 3 5 1014.9 1014.7 0.0
21/08:00pm 25.9 29.9 22.8 83 2.1 ENE 6 7 3 4 1014.4 1014.2 0.0
21/07:30pm 26.2 30.1 22.9 82 2.2 NE 7 9 4 5 1014.1 1013.9 0.0
21/07:00pm 26.5 30.3 22.8 80 2.5 NE 7 11 4 6 1013.8 1013.6 0.0
21/06:30pm 26.8 30.1 22.6 78 2.8 NE 9 11 5 6 1013.6 1013.4 0.0
21/06:00pm 27.5 30.6 22.2 73 3.6 NE 9 13 5 7 1013.4 1013.2 0.0
21/05:30pm 28.1 30.4 22.1 70 4.0 NNE 13 19 7 10 1013.2 1013.0 0.0
21/05:00pm 28.7 30.4 21.7 66 4.7 NNE 15 19 8 10 1013.2 1013.0 0.0
21/04:30pm 29.0 30.7 21.7 64 4.9 NE 15 19 8 10 1013.0 1012.8 0.0
21/04:00pm 29.4 30.4 21.1 61 5.5 NE 17 26 9 14 1012.9 1012.7 0.0
21/03:30pm 29.8 30.5 21.2 60 5.8 NE 19 26 10 14 1013.0 1012.8 0.0
21/03:00pm 30.0 31.0 21.1 59 5.9 NNE 17 26 9 14 1013.2 1013.0 0.0
21/02:30pm 30.6 31.5 20.8 56 6.5 ENE 17 24 9 13 1013.6 1013.4 0.0
21/02:00pm 30.4 30.8 20.6 55 6.5 NE 19 24 10 13 1014.0 1013.8 0.0
21/01:30pm 30.2 31.2 21.0 58 6.1 ENE 17 24 9 13 1014.4 1014.2 0.0
21/01:00pm 30.2 31.5 21.6 60 5.8 NE 17 26 9 14 1014.7 1014.5 0.0
21/12:30pm 29.9 30.8 21.6 61 5.6 NE 19 24 10 13 1015.0 1014.8 0.0
21/12:00pm 30.4 31.6 20.6 55 6.5 NE 15 24 8 13 1015.2 1015.0 0.0
21/11:35am 30.5 32.2 21.0 57 6.3 NE 13 20 7 11 1015.5 1015.3 0.0
21/11:30am 29.9 30.9 20.2 56 6.4 NE 15 20 8 11 1015.6 1015.4 0.0
21/11:19am 30.5 31.8 20.1 53 6.9 NE 13 26 7 14 1015.7 1015.5 0.0
21/11:00am 30.2 30.5 19.6 53 6.9 NE 17 20 9 11 1015.9 1015.7 0.0
21/10:30am 29.4 31.7 21.4 62 5.4 NE 11 20 6 11 1016.3 1016.1 0.0
21/10:00am 29.5 32.1 22.0 64 5.1 ENE 11 15 6 8 1016.5 1016.3 0.0
21/09:30am 28.0 31.4 22.7 73 3.6 ESE 9 15 5 8 1016.6 1016.4 0.0
21/09:29am 28.1 31.4 22.6 72 3.7 ESE 9 15 5 8 1016.6 1016.4 0.0
21/09:15am 28.0 31.2 23.1 74 3.3 ENE 11 19 6 10 1016.6 1016.4 0.0
21/09:00am 27.6 31.4 23.4 78 2.9 E 9 13 5 7 1016.4 1016.2 0.0
21/08:30am 26.0 30.0 23.1 84 2.0 SE 7 9 4 5 1016.3 1016.1 0.0
21/08:00am 24.5 27.1 22.7 90 1.2 SSE 13 17 7 9 1016.1 1015.9 0.0
21/07:30am 23.1 26.3 22.3 95 0.5 SE 9 11 5 6 1015.8 1015.6 0.0
21/07:00am 22.3 25.6 21.8 97 0.3 S 7 9 4 5 1015.5 1015.3 0.0
21/06:30am 22.7 25.8 22.2 97 0.3 SSE 9 11 5 6 1015.1 1014.9 0.0
21/06:00am 22.9 26.1 22.4 97 0.3 SSE 9 11 5 6 1014.9 1014.7 0.0
21/05:30am 23.0 26.3 22.5 97 0.3 SE 9 9 5 5 1014.7 1014.5 0.0
21/05:00am 23.0 26.2 22.3 96 0.5 SSE 9 11 5 6 1014.6 1014.4 0.0
21/04:30am 23.3 26.8 22.8 97 0.3 SE 9 11 5 6 1014.5 1014.3 0.0
21/04:00am 23.5 27.1 23.0 97 0.3 SE 9 11 5 6 1014.4 1014.2 0.0
21/03:30am 22.9 27.2 21.9 94 0.7 SSE 2 7 1 4 1014.6 1014.4 0.0
21/03:00am 23.8 27.7 22.9 95 0.6 SSE 7 9 4 5 1014.6 1014.4 0.0
21/02:30am 24.1 28.2 23.2 95 0.6 SE 7 9 4 5 1014.7 1014.5 0.0
21/02:00am 24.3 28.2 23.6 96 0.5 SE 9 11 5 6 1014.9 1014.7 0.0
21/01:30am 24.1 28.2 23.2 95 0.6 SE 7 9 4 5 1015.0 1014.8 0.0
21/01:00am 24.1 28.1 23.1 94 0.7 S 7 9 4 5 1015.1 1014.9 0.0
21/12:30am 24.4 29.0 23.2 93 0.8 S 4 6 2 3 1015.3 1015.1 0.0
21/12:00am 24.5 28.7 23.5 94 0.7 S 7 9 4 5 1015.3 1015.1 0.0
 
Date/Time
CST
Temp
°C
App
Temp
°C
Dew
Point
Rel
Hum
%
Delta-T
°C
Wind Press
QNH
hPa
Press
MSL
hPa
Rain
since 9 am
mm
Dir
 
Spd
km/h
Gust
km/h
Spd
kts
Gust
kts
20/11:30pm 24.5 29.0 22.9 91 1.1 ESE 4 6 2 3 1015.3 1015.1 0.0
20/11:00pm 25.5 30.2 23.9 91 1.1 E 6 7 3 4 1015.4 1015.2 0.0
20/10:30pm 25.5 30.2 23.9 91 1.1 E 6 9 3 5 1015.3 1015.1 0.0
20/10:00pm 25.3 29.7 23.5 90 1.2 ENE 6 7 3 4 1015.1 1014.9 0.0
20/09:30pm 25.4 30.2 23.5 89 1.3 NE 4 6 2 3 1015.0 1014.8 0.0
20/09:00pm 25.6 31.2 23.5 88 1.4 CALM 0 6 0 3 1014.9 1014.7 0.0
20/08:30pm 25.7 30.2 23.6 88 1.4 NNE 6 7 3 4 1014.6 1014.4 0.0
20/08:00pm 25.9 30.4 23.6 87 1.6 NNE 6 9 3 5 1014.5 1014.3 0.0
20/07:30pm 26.1 30.4 23.6 86 1.7 NNE 7 9 4 5 1014.0 1013.8 0.0
20/07:00pm 26.4 30.2 23.5 84 2.0 NNE 9 11 5 6 1013.6 1013.4 0.0
20/06:30pm 26.8 29.9 22.8 79 2.7 NNE 11 13 6 7 1013.5 1013.3 0.0
20/06:00pm 27.5 30.4 22.4 73 3.4 NNE 11 17 6 9 1013.3 1013.1 0.0
20/05:30pm 28.5 30.7 21.8 67 4.5 NNE 13 19 7 10 1013.1 1012.9 0.0
20/05:00pm 29.1 30.1 21.1 62 5.3 NNE 17 22 9 12 1012.5 1012.3 0.0

Other Formats:

Comma delimited format used in spreadsheet applications
http://www.bom.gov.au/fwo/IDD60801/IDD60801.95142.axf

JavaScript Object Notation format (JSON) in row-major order
http://www.bom.gov.au/fwo/IDD60801/IDD60801.95142.json